createdAt,value
2023-03-22T00:00:14.940Z,98885.00
2023-03-22T00:01:48.094Z,98893.00
2023-03-22T00:03:21.145Z,98882.00
2023-03-22T00:04:57.416Z,98877.00
2023-03-22T00:06:30.895Z,98878.00
2023-03-22T00:08:06.949Z,98883.00
2023-03-22T00:09:40.135Z,98882.00
2023-03-22T00:11:15.195Z,98879.00
2023-03-22T00:12:48.252Z,98878.00
2023-03-22T00:14:23.560Z,98874.00
2023-03-22T00:15:59.567Z,98874.00
2023-03-22T00:17:34.206Z,98874.00
2023-03-22T00:19:15.268Z,98869.00
2023-03-22T00:20:50.636Z,98861.00
2023-03-22T00:22:28.643Z,98856.00
2023-03-22T00:24:01.758Z,98863.00
2023-03-22T00:25:34.825Z,98860.00
2023-03-22T00:27:08.186Z,98856.00
2023-03-22T00:28:44.645Z,98861.00
2023-03-22T00:30:18.201Z,98860.00
2023-03-22T00:31:54.277Z,98845.00
2023-03-22T00:33:27.583Z,98857.00
2023-03-22T00:35:02.440Z,98859.00
2023-03-22T00:36:34.436Z,98855.00
2023-03-22T00:38:14.218Z,98841.00
2023-03-22T00:39:48.466Z,98847.00
2023-03-22T00:41:23.956Z,98847.00
2023-03-22T00:42:56.198Z,98849.00
2023-03-22T00:44:31.386Z,98847.00
2023-03-22T00:46:05.777Z,98853.00
2023-03-22T00:47:40.425Z,98847.00
2023-03-22T00:49:13.579Z,98846.00
2023-03-22T00:50:47.188Z,98844.00
2023-03-22T00:52:19.430Z,98851.00
2023-03-22T00:53:54.047Z,98839.00
2023-03-22T00:55:27.648Z,98843.00
2023-03-22T00:57:01.013Z,98835.00
2023-03-22T00:58:35.123Z,98830.00
2023-03-22T01:00:13.001Z,98825.00
2023-03-22T01:01:46.235Z,98823.00
2023-03-22T01:03:21.792Z,98820.00
2023-03-22T01:04:55.024Z,98816.00
2023-03-22T01:06:28.417Z,98822.00
2023-03-22T01:08:06.251Z,98819.00
2023-03-22T01:09:39.413Z,98822.00
2023-03-22T01:11:13.606Z,98822.00
2023-03-22T01:12:46.386Z,98815.00
2023-03-22T01:14:19.496Z,98806.00
2023-03-22T01:15:52.685Z,98811.00
2023-03-22T01:17:25.026Z,98798.00
2023-03-22T01:18:59.523Z,98803.00
2023-03-22T01:20:33.491Z,98805.00
2023-03-22T01:22:08.445Z,98801.00
2023-03-22T01:23:42.105Z,98797.00
2023-03-22T01:25:15.386Z,98793.00
2023-03-22T01:26:49.010Z,98799.00
2023-03-22T01:28:23.104Z,98786.00
2023-03-22T01:29:57.711Z,98796.00
2023-03-22T01:31:30.830Z,98785.00
2023-03-22T01:33:05.630Z,98795.00
2023-03-22T01:34:39.237Z,98793.00
2023-03-22T01:36:13.056Z,98782.00
2023-03-22T01:37:45.204Z,98792.00
2023-03-22T01:39:18.934Z,98788.00
2023-03-22T01:40:54.747Z,98792.00
2023-03-22T01:42:29.276Z,98782.00
2023-03-22T01:44:17.051Z,98782.00
2023-03-22T01:45:51.799Z,98780.00
2023-03-22T01:47:28.025Z,98771.00
2023-03-22T01:49:04.175Z,98774.00
2023-03-22T01:50:42.507Z,98780.00
2023-03-22T01:52:16.721Z,98771.00
2023-03-22T01:54:01.803Z,98775.00
2023-03-22T01:55:35.393Z,98782.00
2023-03-22T01:57:15.806Z,98780.00
2023-03-22T01:58:51.167Z,98774.00
2023-03-22T02:00:28.408Z,98778.00
2023-03-22T02:02:30.769Z,98772.00
2023-03-22T02:04:21.004Z,98769.00
2023-03-22T02:05:55.007Z,98766.00
2023-03-22T02:07:31.758Z,98758.00
2023-03-22T02:09:08.082Z,98758.00
2023-03-22T02:10:41.338Z,98760.00
2023-03-22T02:12:38.459Z,98750.00
2023-03-22T02:14:49.907Z,98747.00
2023-03-22T02:16:57.266Z,98751.00
2023-03-22T02:18:50.066Z,98746.00
2023-03-22T02:21:13.705Z,98738.00
2023-03-22T02:23:21.158Z,98743.00
2023-03-22T02:25:36.047Z,98731.00
2023-03-22T02:27:40.060Z,98735.00
2023-03-22T02:29:19.171Z,98735.00
2023-03-22T02:31:50.916Z,98737.00
2023-03-22T02:33:58.558Z,98719.00
2023-03-22T02:35:56.867Z,98725.00
2023-03-22T02:38:15.868Z,98726.00
2023-03-22T02:39:56.765Z,98719.00
2023-03-22T02:41:47.417Z,98723.00
2023-03-22T02:43:34.482Z,98728.00
2023-03-22T02:45:16.706Z,98727.00
2023-03-22T02:47:02.070Z,98721.00
2023-03-22T02:48:43.011Z,98721.00
2023-03-22T02:50:23.842Z,98719.00
2023-03-22T02:52:10.072Z,98725.00
2023-03-22T02:53:48.494Z,98721.00
2023-03-22T02:55:30.250Z,98727.00
2023-03-22T02:57:11.248Z,98712.00
2023-03-22T02:58:50.197Z,98707.00
2023-03-22T03:00:26.291Z,98712.00
2023-03-22T03:02:04.124Z,98716.00
2023-03-22T03:03:39.792Z,98709.00
2023-03-22T03:05:16.155Z,98695.00
2023-03-22T03:06:53.076Z,98699.00
2023-03-22T03:08:28.972Z,98692.00
2023-03-22T03:10:04.051Z,98694.00
2023-03-22T03:11:38.453Z,98700.00
2023-03-22T03:13:13.677Z,98698.00
2023-03-22T03:14:46.821Z,98702.00
2023-03-22T03:16:26.475Z,98700.00
2023-03-22T03:18:27.557Z,98687.00
2023-03-22T03:20:18.713Z,98686.00
2023-03-22T03:22:00.821Z,98689.00
2023-03-22T03:23:56.092Z,98672.00
2023-03-22T03:25:43.515Z,98683.00
2023-03-22T03:27:28.152Z,98679.00
2023-03-22T03:29:06.554Z,98676.00
2023-03-22T03:30:49.101Z,98678.00
2023-03-22T03:32:31.380Z,98684.00
2023-03-22T03:34:18.339Z,98677.00
2023-03-22T03:35:58.124Z,98676.00
2023-03-22T03:37:39.695Z,98678.00
2023-03-22T03:39:16.140Z,98676.00
2023-03-22T03:40:55.285Z,98674.00
2023-03-22T03:42:31.595Z,98668.00
2023-03-22T03:44:06.287Z,98670.00
2023-03-22T03:45:40.949Z,98664.00
2023-03-22T03:47:15.744Z,98674.00
2023-03-22T03:48:51.677Z,98669.00
2023-03-22T03:50:26.939Z,98671.00
2023-03-22T03:52:01.669Z,98672.00
2023-03-22T03:53:35.210Z,98667.00
2023-03-22T03:55:09.697Z,98662.00
2023-03-22T03:56:42.847Z,98669.00
2023-03-22T03:58:17.436Z,98663.00
2023-03-22T03:59:52.264Z,98667.00
2023-03-22T04:01:35.699Z,98663.00
2023-03-22T04:03:18.599Z,98668.00
2023-03-22T04:05:08.313Z,98657.00
2023-03-22T04:06:42.664Z,98660.00
2023-03-22T04:08:20.324Z,98667.00
2023-03-22T04:09:53.507Z,98675.00
2023-03-22T04:11:33.555Z,98684.00
2023-03-22T04:13:08.784Z,98676.00
2023-03-22T04:14:43.628Z,98673.00
2023-03-22T04:16:25.809Z,98669.00
2023-03-22T04:17:59.873Z,98664.00
2023-03-22T04:19:35.787Z,98683.00
2023-03-22T04:21:09.304Z,98673.00
2023-03-22T04:23:05.736Z,98674.00
2023-03-22T04:24:37.900Z,98657.00
2023-03-22T04:26:11.012Z,98670.00
2023-03-22T04:27:55.835Z,98664.00
2023-03-22T04:29:32.189Z,98658.00
2023-03-22T04:31:19.575Z,98661.00
2023-03-22T04:32:58.052Z,98664.00
2023-03-22T04:34:43.527Z,98656.00
2023-03-22T04:36:19.647Z,98670.00
2023-03-22T04:38:12.458Z,98659.00
2023-03-22T04:39:47.286Z,98662.00
2023-03-22T04:41:40.733Z,98664.00
2023-03-22T04:43:13.917Z,98666.00
2023-03-22T04:44:56.085Z,98667.00
2023-03-22T04:46:31.610Z,98662.00
2023-03-22T04:48:10.389Z,98671.00
2023-03-22T04:49:44.172Z,98665.00
2023-03-22T04:51:17.747Z,98666.00
2023-03-22T04:53:14.755Z,98673.00
2023-03-22T04:54:50.822Z,98667.00
2023-03-22T04:56:24.587Z,98682.00
2023-03-22T04:57:58.633Z,98669.00
2023-03-22T04:59:31.899Z,98671.00
2023-03-22T05:01:06.131Z,98667.00
2023-03-22T05:02:41.496Z,98665.00
2023-03-22T05:04:21.625Z,98660.00
2023-03-22T05:06:01.869Z,98666.00
2023-03-22T05:07:44.227Z,98669.00
2023-03-22T05:09:17.858Z,98662.00
2023-03-22T05:10:52.132Z,98660.00
2023-03-22T05:12:25.658Z,98654.00
2023-03-22T05:14:04.587Z,98649.00
2023-03-22T05:15:41.641Z,98656.00
2023-03-22T05:17:15.574Z,98648.00
2023-03-22T05:18:54.316Z,98657.00
2023-03-22T05:20:27.409Z,98656.00
2023-03-22T05:22:14.146Z,98652.00
2023-03-22T05:23:51.708Z,98653.00
2023-03-22T05:25:25.890Z,98649.00
2023-03-22T05:27:00.813Z,98655.00
2023-03-22T05:28:34.241Z,98654.00
2023-03-22T05:30:17.143Z,98653.00
2023-03-22T05:31:58.325Z,98652.00
2023-03-22T05:33:31.851Z,98648.00
2023-03-22T05:35:07.553Z,98641.00
2023-03-22T05:36:46.403Z,98650.00
2023-03-22T05:38:28.797Z,98658.00
2023-03-22T05:40:10.049Z,98655.00
2023-03-22T05:41:47.979Z,98641.00
2023-03-22T05:43:21.593Z,98650.00
2023-03-22T05:44:56.553Z,98649.00
2023-03-22T05:46:30.371Z,98659.00
2023-03-22T05:48:23.496Z,98661.00
2023-03-22T05:49:56.816Z,98649.00
2023-03-22T05:51:32.597Z,98653.00
2023-03-22T05:53:06.314Z,98653.00
2023-03-22T05:54:50.292Z,98652.00
2023-03-22T05:56:24.742Z,98646.00
2023-03-22T05:58:07.590Z,98651.00
2023-03-22T05:59:43.970Z,98648.00
2023-03-22T06:01:25.540Z,98648.00
2023-03-22T06:03:22.518Z,98645.00
2023-03-22T06:05:02.360Z,98652.00
2023-03-22T06:06:39.497Z,98646.00
2023-03-22T06:08:31.265Z,98652.00
2023-03-22T06:10:06.647Z,98645.00
2023-03-22T06:11:39.805Z,98627.00
2023-03-22T06:13:12.977Z,98641.00
2023-03-22T06:14:46.077Z,98629.00
2023-03-22T06:16:41.175Z,98633.00
2023-03-22T06:18:14.877Z,98629.00
2023-03-22T06:19:53.318Z,98620.00
2023-03-22T06:21:26.572Z,98629.00
2023-03-22T06:23:01.032Z,98623.00
2023-03-22T06:24:34.913Z,98623.00
2023-03-22T06:26:11.239Z,98625.00
2023-03-22T06:27:44.642Z,98620.00
2023-03-22T06:29:17.769Z,98621.00
2023-03-22T06:30:51.076Z,98627.00
2023-03-22T06:32:35.388Z,98629.00
2023-03-22T06:34:08.879Z,98625.00
2023-03-22T06:35:47.809Z,98626.00
2023-03-22T06:37:27.797Z,98615.00
2023-03-22T06:39:05.026Z,98617.00
2023-03-22T06:40:38.566Z,98624.00
2023-03-22T06:42:12.402Z,98609.00
2023-03-22T06:43:45.705Z,98627.00
2023-03-22T06:45:33.428Z,98619.00
2023-03-22T06:47:07.171Z,98614.00
2023-03-22T06:48:51.447Z,98619.00
2023-03-22T06:50:24.766Z,98634.00
2023-03-22T06:52:11.131Z,98630.00
2023-03-22T06:53:45.381Z,98622.00
2023-03-22T06:55:19.932Z,98630.00
2023-03-22T06:56:53.096Z,98624.00
2023-03-22T06:58:27.195Z,98621.00
2023-03-22T07:00:00.700Z,98638.00
2023-03-22T07:01:34.062Z,98624.00
2023-03-22T07:03:07.267Z,98632.00
2023-03-22T07:04:49.851Z,98629.00
2023-03-22T07:06:23.266Z,98630.00
2023-03-22T07:07:57.656Z,98626.00
2023-03-22T07:09:32.728Z,98626.00
2023-03-22T07:11:08.602Z,98624.00
2023-03-22T07:12:42.604Z,98630.00
2023-03-22T07:14:19.950Z,98630.00
2023-03-22T07:16:10.997Z,98620.00
2023-03-22T07:17:51.932Z,98627.00
2023-03-22T07:19:25.963Z,98616.00
2023-03-22T07:20:59.640Z,98608.00
2023-03-22T07:22:32.907Z,98618.00
2023-03-22T07:24:09.039Z,98605.00
2023-03-22T07:25:42.983Z,98610.00
2023-03-22T07:27:31.566Z,98612.00
2023-03-22T07:29:05.674Z,98607.00
2023-03-22T07:30:41.301Z,98605.00
2023-03-22T07:32:15.020Z,98598.00
2023-03-22T07:34:07.155Z,98607.00
2023-03-22T07:35:48.645Z,98597.00
2023-03-22T07:37:21.783Z,98597.00
2023-03-22T07:38:54.984Z,98601.00
2023-03-22T07:40:34.631Z,98597.00
2023-03-22T07:42:09.431Z,98599.00
2023-03-22T07:43:55.381Z,98593.00
2023-03-22T07:45:30.542Z,98594.00
2023-03-22T07:47:39.401Z,98604.00
2023-03-22T07:49:25.213Z,98604.00
2023-03-22T07:51:16.865Z,98600.00
2023-03-22T07:52:50.125Z,98583.00
2023-03-22T07:54:33.374Z,98590.00
2023-03-22T07:56:10.179Z,98587.00
2023-03-22T07:57:43.280Z,98582.00
2023-03-22T07:59:18.304Z,98577.00
2023-03-22T08:00:51.730Z,98591.00
2023-03-22T08:02:45.579Z,98588.00
2023-03-22T08:04:28.152Z,98583.00
2023-03-22T08:06:07.632Z,98581.00
2023-03-22T08:07:42.208Z,98567.00
2023-03-22T08:09:16.615Z,98575.00
2023-03-22T08:10:51.352Z,98586.00
2023-03-22T08:12:24.755Z,98570.00
2023-03-22T08:14:05.864Z,98582.00
2023-03-22T08:15:43.460Z,98569.00
2023-03-22T08:17:17.248Z,98583.00
2023-03-22T08:18:50.720Z,98572.00
2023-03-22T08:20:27.155Z,98576.00
2023-03-22T08:22:06.737Z,98568.00
2023-03-22T08:24:03.173Z,98567.00
2023-03-22T08:26:01.067Z,98569.00
2023-03-22T08:27:34.246Z,98564.00
2023-03-22T08:29:07.999Z,98564.00
2023-03-22T08:30:45.944Z,98568.00
2023-03-22T08:32:20.214Z,98567.00
2023-03-22T08:33:53.499Z,98561.00
2023-03-22T08:35:26.732Z,98571.00
2023-03-22T08:36:59.937Z,98563.00
2023-03-22T08:38:33.172Z,98570.00
2023-03-22T08:40:10.218Z,98572.00
2023-03-22T08:41:47.912Z,98564.00
2023-03-22T08:43:21.642Z,98576.00
2023-03-22T08:44:55.005Z,98566.00
2023-03-22T08:46:32.450Z,98558.00
2023-03-22T08:48:06.377Z,98555.00
2023-03-22T08:49:53.489Z,98561.00
2023-03-22T08:52:07.355Z,98555.00
2023-03-22T08:53:50.386Z,98562.00
2023-03-22T08:55:44.779Z,98555.00
2023-03-22T08:57:17.967Z,98573.00
2023-03-22T08:59:11.653Z,98572.00
2023-03-22T09:00:54.053Z,98577.00
2023-03-22T09:02:51.996Z,98573.00
2023-03-22T09:04:26.158Z,98576.00
2023-03-22T09:05:59.618Z,98574.00
2023-03-22T09:07:35.945Z,98573.00
2023-03-22T09:09:14.797Z,98581.00
2023-03-22T09:10:51.847Z,98582.00
2023-03-22T09:12:27.530Z,98595.00
2023-03-22T09:14:00.635Z,98578.00
2023-03-22T09:15:33.795Z,98575.00
2023-03-22T09:17:36.491Z,98568.00
2023-03-22T09:19:11.383Z,98573.00
2023-03-22T09:20:46.625Z,98572.00
2023-03-22T09:22:21.782Z,98559.00
2023-03-22T09:23:56.765Z,98577.00
2023-03-22T09:25:39.261Z,98572.00
2023-03-22T09:27:12.548Z,98558.00
2023-03-22T09:28:47.001Z,98565.00
2023-03-22T09:30:20.286Z,98569.00
2023-03-22T09:31:53.763Z,98569.00
2023-03-22T09:33:31.790Z,98559.00
2023-03-22T09:35:07.442Z,98556.00
2023-03-22T09:36:53.793Z,98558.00
2023-03-22T09:38:33.666Z,98549.00
2023-03-22T09:40:09.280Z,98564.00
2023-03-22T09:41:49.550Z,98550.00
2023-03-22T09:43:23.183Z,98549.00
2023-03-22T09:44:58.383Z,98564.00
2023-03-22T09:46:37.993Z,98558.00
2023-03-22T09:48:20.539Z,98550.00
2023-03-22T09:50:05.698Z,98550.00
2023-03-22T09:51:43.477Z,98550.00
2023-03-22T09:53:18.649Z,98547.00
2023-03-22T09:54:53.225Z,98547.00
2023-03-22T09:56:28.504Z,98556.00
2023-03-22T09:58:17.271Z,98554.00
2023-03-22T09:59:59.338Z,98548.00
2023-03-22T10:01:46.527Z,98547.00
2023-03-22T10:03:34.686Z,98536.00
2023-03-22T10:05:23.767Z,98541.00
2023-03-22T10:07:09.038Z,98534.00
2023-03-22T10:08:55.640Z,98537.00
2023-03-22T10:10:29.448Z,98535.00
2023-03-22T10:12:12.569Z,98527.00
2023-03-22T10:14:02.683Z,98521.00
2023-03-22T10:15:40.627Z,98516.00
2023-03-22T10:17:19.214Z,98517.00
2023-03-22T10:19:02.593Z,98539.00
2023-03-22T10:20:44.856Z,98547.00
2023-03-22T10:22:25.581Z,98526.00
2023-03-22T10:24:03.591Z,98531.00
2023-03-22T10:25:41.378Z,98539.00
2023-03-22T10:27:19.159Z,98536.00
2023-03-22T10:29:03.973Z,98519.00
2023-03-22T10:30:41.811Z,98528.00
2023-03-22T10:32:18.547Z,98548.00
2023-03-22T10:34:00.091Z,98531.00
2023-03-22T10:35:33.532Z,98537.00
2023-03-22T10:37:11.078Z,98526.00
2023-03-22T10:38:51.038Z,98534.00
2023-03-22T10:40:29.512Z,98521.00
2023-03-22T10:42:08.778Z,98535.00
2023-03-22T10:43:43.964Z,98549.00
2023-03-22T10:45:17.642Z,98549.00
2023-03-22T10:46:53.238Z,98544.00
2023-03-22T10:48:32.946Z,98544.00
2023-03-22T10:50:13.584Z,98547.00
2023-03-22T10:51:51.976Z,98545.00
2023-03-22T10:53:42.116Z,98555.00
2023-03-22T10:55:17.048Z,98551.00
2023-03-22T10:56:50.232Z,98542.00
2023-03-22T10:58:29.178Z,98551.00
2023-03-22T11:00:11.346Z,98555.00
2023-03-22T11:01:46.394Z,98546.00
2023-03-22T11:03:30.673Z,98552.00
2023-03-22T11:05:07.328Z,98568.00
2023-03-22T11:06:49.493Z,98574.00
2023-03-22T11:08:22.603Z,98554.00
2023-03-22T11:10:12.408Z,98562.00
2023-03-22T11:11:53.445Z,98555.00
2023-03-22T11:13:27.146Z,98557.00
2023-03-22T11:15:00.608Z,98568.00
2023-03-22T11:16:43.934Z,98559.00
2023-03-22T11:18:18.646Z,98555.00
2023-03-22T11:19:56.177Z,98558.00
2023-03-22T11:21:33.820Z,98562.00
2023-03-22T11:23:07.787Z,98561.00
2023-03-22T11:24:41.021Z,98552.00
2023-03-22T11:26:15.653Z,98558.00
2023-03-22T11:27:56.406Z,98556.00
2023-03-22T11:29:29.911Z,98557.00
2023-03-22T11:31:08.551Z,98555.00
2023-03-22T11:32:41.728Z,98559.00
2023-03-22T11:34:21.491Z,98548.00
2023-03-22T11:35:57.718Z,98562.00
2023-03-22T11:37:30.984Z,98561.00
2023-03-22T11:39:08.640Z,98547.00
2023-03-22T11:40:54.653Z,98548.00
2023-03-22T11:42:28.294Z,98546.00
2023-03-22T11:44:08.205Z,98542.00
2023-03-22T11:45:45.305Z,98548.00
2023-03-22T11:47:20.795Z,98549.00
2023-03-22T11:49:01.739Z,98541.00
2023-03-22T11:50:40.746Z,98545.00
2023-03-22T11:52:20.197Z,98541.00
2023-03-22T11:54:04.361Z,98548.00
2023-03-22T11:55:38.482Z,98538.00
2023-03-22T11:57:19.279Z,98525.00
2023-03-22T11:59:01.781Z,98540.00
2023-03-22T12:00:41.314Z,98542.00
2023-03-22T12:02:25.531Z,98536.00
2023-03-22T12:04:02.048Z,98542.00
2023-03-22T12:05:42.618Z,98526.00
2023-03-22T12:07:22.116Z,98541.00
2023-03-22T12:09:04.029Z,98547.00
2023-03-22T12:10:43.950Z,98543.00
2023-03-22T12:12:24.309Z,98544.00
2023-03-22T12:14:04.066Z,98521.00
2023-03-22T12:15:48.237Z,98545.00
2023-03-22T12:17:35.183Z,98547.00
2023-03-22T12:19:24.135Z,98538.00
2023-03-22T12:21:01.013Z,98535.00
2023-03-22T12:22:40.024Z,98538.00
2023-03-22T12:24:26.929Z,98538.00
2023-03-22T12:26:04.562Z,98527.00
2023-03-22T12:27:42.536Z,98536.00
2023-03-22T12:29:19.869Z,98526.00
2023-03-22T12:30:58.619Z,98526.00
2023-03-22T12:32:38.566Z,98522.00
2023-03-22T12:34:19.096Z,98514.00
2023-03-22T12:35:58.717Z,98528.00
2023-03-22T12:37:38.282Z,98521.00
2023-03-22T12:39:23.762Z,98519.00
2023-03-22T12:41:02.934Z,98512.00
2023-03-22T12:42:51.187Z,98514.00
2023-03-22T12:44:34.060Z,98515.00
2023-03-22T12:46:18.355Z,98514.00
2023-03-22T12:48:01.193Z,98506.00
2023-03-22T12:49:41.950Z,98513.00
2023-03-22T12:51:16.685Z,98510.00
2023-03-22T12:52:54.825Z,98506.00
2023-03-22T12:54:29.942Z,98496.00
2023-03-22T12:56:04.188Z,98498.00
2023-03-22T12:57:38.425Z,98506.00
2023-03-22T12:59:19.140Z,98503.00
2023-03-22T13:00:58.017Z,98502.00
2023-03-22T13:02:36.117Z,98500.00
2023-03-22T13:04:33.877Z,98512.00
2023-03-22T13:06:34.884Z,98514.00
2023-03-22T13:08:08.977Z,98523.00
2023-03-22T13:09:47.071Z,98526.00
2023-03-22T13:11:25.477Z,98530.00
2023-03-22T13:13:17.217Z,98525.00
2023-03-22T13:15:01.865Z,98522.00
2023-03-22T13:16:52.967Z,98520.00
2023-03-22T13:18:57.168Z,98530.00
2023-03-22T13:20:34.207Z,98528.00
2023-03-22T13:22:28.541Z,98529.00
2023-03-22T13:24:23.344Z,98529.00
2023-03-22T13:26:04.115Z,98529.00
2023-03-22T13:27:41.698Z,98542.00
2023-03-22T13:29:20.821Z,98538.00
2023-03-22T13:30:58.109Z,98536.00
2023-03-22T13:32:34.817Z,98542.00
2023-03-22T13:34:17.785Z,98550.00
2023-03-22T13:35:56.446Z,98539.00
2023-03-22T13:37:36.737Z,98552.00
2023-03-22T13:39:13.368Z,98545.00
2023-03-22T13:40:55.685Z,98545.00
2023-03-22T13:42:39.377Z,98549.00
2023-03-22T13:44:27.859Z,98546.00
2023-03-22T13:46:28.072Z,98550.00
2023-03-22T13:48:12.576Z,98545.00
2023-03-22T13:49:54.263Z,98541.00
2023-03-22T13:51:33.127Z,98547.00
2023-03-22T13:53:16.716Z,98528.00
2023-03-22T13:54:54.207Z,98525.00
2023-03-22T13:56:48.732Z,98543.00
2023-03-22T13:58:52.201Z,98543.00
2023-03-22T14:00:53.127Z,98538.00
2023-03-22T14:02:30.761Z,98531.00
2023-03-22T14:04:10.516Z,98535.00
2023-03-22T14:05:47.202Z,98522.00
2023-03-22T14:07:28.076Z,98529.00
2023-03-22T14:09:13.243Z,98528.00
2023-03-22T14:10:52.061Z,98522.00
2023-03-22T14:12:31.975Z,98513.00
2023-03-22T14:14:14.194Z,98530.00
2023-03-22T14:15:52.874Z,98522.00
2023-03-22T14:17:38.672Z,98536.00
2023-03-22T14:19:21.011Z,98526.00
2023-03-22T14:20:59.682Z,98523.00
